NWS Home NWS Lubbock West Texas Mesonet South Sector Latest Conditions as of 0731 PM, Wed Jan 17, 2018

Latest   N   C   S   Daily Sum   3hrΔ   24hrΔ   Soil Data 
Site Map   24hr Precip   72hr Precip   Google Plot


Station Time of Last Temp Dew Pt. RH Wind Direction Wind Speed Wind Gust Max Wind Max Temp Min Temp Max RH Min RH Altimeter 1HR Rain Today's Rain Solar Rad Wind Chill
Andrews 2E  07:25 PM 34 -10 14% SE1115 19 mph 154° @ 0130 PM 38 19 45 13 30.39" 0 0.00 0 26
Aspermont 3NE  07:20 PM 31 0 26% SE78 16 mph 186° @ 1130 AM 43 3 55 15 30.49" 0 0.00 0 24
Big Bend NP - Persimmon Gap  07:25 PM 34 2 25% NE1719 26 mph 31° @ 0629 PM 38 27 25 21 30.40" 0 0.00 0 24
Big Lake 1WNW  07:25 PM 35 -4 19% SE710 14 mph 165° @ 0208 PM 37 25 34 14 30.45" 0 0.00 0 29
Brownfield 2S  07:25 PM 28 -2 26% SE910 24 mph 190° @ 0300 PM 43 10 48 14 30.39" 0 0.00 0 19
Clyde 2WNW  07:25 PM 29 1 29% SE78 14 mph 96° @ 0308 PM 39 6 67 19 30.50" 0 0.00 0 22
Colorado City 5NW  07:25 PM 37 1 22% SE1114 16 mph 159° @ 1257 PM 42 8 56 17 30.48" 0 0.00 0  
Coyanosa 2N  07:25 PM 31 4 31% E710 18 mph 94° @ 0119 PM 38 28 31 20 30.40" 0 0.00 0 24
Dell City  07:25 PM 36 17 46% N00 8 mph 157° @ 1212 AM 42 14 66 28 30.34" 0 0.00 0  
Denver City 7WNW  07:25 PM 25 -6 25% SE78 23 mph 167° @ 1140 AM 42 12 54 15 30.36" 0 0.00 0 17
Fluvanna 3WNW  07:25 PM 29 -1 27% SE910 20 mph 166° @ 0335 PM 40 12 45 18 30.43" 0 0.00 0 21
Fort Chadbourne  07:25 PM 34 1 24% S44 14 mph 158° @ 0237 PM 40 3 79 19 30.50" 0 0.00 0  
Fort Lancaster  07:25 PM 36 -1 21% SE810 14 mph 163° @ 0247 PM 38 28 28 16 30.47" 0 0.00 0  
Fort McKavett  07:25 PM 36 -1 20% S23 10 mph 53° @ 1159 AM 41 14 62 14 30.51" 0 0.00 0  
Gail 2ESE  07:25 PM 35 -1 21% S911 21 mph 170° @ 0240 PM 43 8 47 17 30.43" 0 0.00 0 28
Graham 5SSW  07:25 PM 31 0 27% SE910 22 mph 175° @ 0150 PM 41 12 45 19 30.42" 0 0.00 0 23
Guadalupe Mtns Natl Park  07:25 PM 28 4 37% E67 21 mph 207° @ 1238 PM 38 15 89 31 30.30" 0 0.00 0 21
Haskell 1NW  07:25 PM 32 0 24% SE912 15 mph 192° @ 1130 AM 41 9 54 16 30.50" 0 0.00 0 24
Hobbs NM 5NW  07:25 PM 28 -5 22% SE810 20 mph 178° @ 1119 AM 38 11 49 14 30.38" 0 0.00 0 20
Jayton 1SSE  07:25 PM 30 0 28% SE89 16 mph 178° @ 0115 PM 43 5 45 17 30.47" 0 0.00 0 22
Junction 1SSW  07:25 PM 38 2 21% NE56 11 mph 27° @ 1234 AM 40 22 37 15 30.53" 0 0.00 0  
Lake Alan Henry 1NW  07:25 PM 34 4 28% SE77 18 mph 181° @ 1240 PM 44 10 57 15 30.45" 0 0.00 0 28
Lamesa 2SE  07:25 PM 34 -6 18% SE1014 22 mph 173° @ 0150 PM 39 10 62 14 30.42" 0 0.00 0 26
Lomax 1SSE  07:25 PM 36 -5 17% SE1011 18 mph 148° @ 1247 PM 40 10 48 12 30.45" 0 0.00 0  
McCamey 1SSW  07:25 PM 36 -1 21% SE1316 18 mph 124° @ 0639 PM 37 27 30 18 30.44" 0 0.00 0  
Menard 2NW   07:25 PM 37 2 23% SE68 12 mph 113° @ 0316 PM 41 7 72 15 30.53" 0 0.00 0  
Mertzon 3NNE  07:25 PM 37 -2 19% SE45 12 mph 111° @ 0109 PM 39 7 79 14 30.50" 0 0.00 0  
New Home  07:25 PM 29 -3 24% S910 23 mph 187° @ 1246 PM 42 9 51 18 30.40" 0 0.00 0 21
O'Donnell 1N  07:25 PM 32 -7 18% SE710 21 mph 188° @ 0325 PM 41 9 48 14 30.40" 0 0.00 0 25
Plains 3N  07:25 PM 24 -4 28% SE78 26 mph 180° @ 0200 PM 43 6 55 17 30.36" 0 0.00 0 16
Post 1NE  07:25 PM 31 0 26% S68 19 mph 160° @ 0350 PM 44 12 36 16 30.43" 0 0.00 0 25
San Angelo 7NW  07:25 PM 37 -7 15% E811 14 mph 109° @ 0220 PM 39 8 62 14 30.50" 0 0.00 0  
Seagraves 1SW  07:25 PM 30 -5 22% SE69 23 mph 195° @ 1250 PM 43 9 64 16 30.37" 0 0.00 0 24
Seminole 2NNE  07:25 PM 28 -6 22% SE911 25 mph 176° @ 0125 PM 42 14 47 14 30.38" 0 0.00 0 19
Sierra Blanca 1SSE  07:25 PM 37 16 41% SE66 14 mph 102° @ 0438 PM 43 24 49 27 30.31" 0 0.00 0  
Snyder 3E  07:25 PM 33 2 27% SE89 16 mph 187° @ 1135 AM 41 11 51 18 30.45" 0 0.00 0 26
Snyder 3SSW  07:25 PM 35 2 24% S910 15 mph 160° @ 0335 PM 40 10 52 19 30.46" 0 0.00 0 28
St. Lawrence 5SW  07:25 PM 36 -9 15% SE1214 19 mph 144° @ 1240 PM 37 16 40 11 30.44" 0 0.00 0  
Sterling City 4WSW  07:25 PM 35 -3 20% E68 15 mph 143° @ 0125 PM 38 0 68 14 30.48" 0 0.00 0  
Sundown 8WSW  07:25 PM 24 -3 31% SE910 26 mph 192° @ 0200 PM 44 5 60 19 30.36" 0 0.00 0 14
Sweetwater 11SW   07:25 PM 32 1 27% SE66 13 mph 154° @ 0257 PM 40 9 46 21 30.48" 0 0.00 0 26
Tahoka 3NNE  07:25 PM 27 -3 27% SE89 22 mph 176° @ 0158 PM 42 9 46 16 30.40" 0 0.00 0 19
Tarzan 2WNW  07:25 PM 35 -7 15% SE1417 17 mph 170° @ 1140 AM 38 14 49 15 30.42" 0 0.00 0 26
Tatum NM 2SW  07:25 PM 21 0 41% S78 23 mph 189° @ 1200 PM 41 5 68 17 30.35" 0 0.00 0 12
Throckmorton 1SW  07:25 PM 28 1 31% S67 12 mph 183° @ 1126 AM 39 8 87 20 30.53" 0 0.00 0 21
Wall 2E  07:25 PM 36 -1 20% E1011 15 mph 77° @ 0100 PM 40 8 74 16 30.52" 0 0.00 0  
Weinert 2NNE  07:25 PM 31 -2 24% SE1112 15 mph 190° @ 1119 AM 42 5 59 17 30.51" 0 0.00 0 22
Welch  07:25 PM 30 -5 21% S89 23 mph 180° @ 0142 PM 42 9 55 15 30.41" 0 0.00 0 22

West Texas Mesonet Home   Site Map/Menu  NWS Lubbock Soil Data  Daily Summary Page  24hr Precip  72hr Precip  Google Plot